BIENTÔT MET'MAP
version 2.0 !

Prévue avant fin octobre,
la nouvelle version sera
plus belle, plus complète
et hébergée sur un serveur
3 fois plus puissant...
et toujours gratuite !


Pas compatible ?
Essayez la version Mobile !

SE CONNECTER : | S'inscrire | Disclaimer | Découvrir Orbifly |
Code OACI :

TAF - ETAD Spangdahlem Ab - 25 Feb 2020 16:42 UTC
Data Sources :     NOAA   


- Altitude de l'aérodrome : 1197 ft
- Code IATA : SPM
- Pas de NOTAMs connus.


ETAD - Spangdahlem Ab

Dernier METAR connu : 2015/08/11 08:02 ETAD 110802Z 29001KT 9999 FEW180 19/15 A3009
TAF AMD TAF ETAD
Valide du 25 à 13h jusqu'au 26 à 19h UTC


251330Z 2513/2619 24010G20KT 9999 SCT025 BKN040 QNH2948INS
BECMG 2518/2519 24010G20KT 8000 -RA SCT025 BKN040 620409 QNH2940INS
BECMG 2520/2521 24010G20KT 8000 -RA BKN015 620257 QNH2938INS
BECMG 2600/2601 25015G25KT 6000 -RA BR BKN010 620257 QNH2938INS
BECMG 2603/2604 25015G25KT 6000 -RASN BKN007 620254 QNH2936INS
BECMG 2608/2609 27015G30KT 9999 NSW BKN010 620254 510004 QNH2943INS TX08/2513Z TN02/2605Z

Source NOAA


MET'MAP, la Météo Aéronautique d'un coup d'oeil ! - Copyright ORBIFLY Décembre 2007

Développement & Programmation : Alexandra Zaïnal
Co-Développement : Marc-Olivier Méhu
Soutien technique & logistique : Manuel Goepfert
Conception & Financement : Baudouin d'Aumeries